Hauptseite
METAR-TAF:

METAR-TAF

Flughäfen :

Chongqing, China

Flughafen Chongqing-Jiangbei

Breite: 29-31N, Länge: 106-29E, Höhe: 351 m

Beobachtung

Neuester Wetterbericht von vor 50 Minuten, um 15:00 UTC
Windstille
Temperatur 24°C
Luftfeuchtigkeit 74%
Luftdruck 1011 hPa
Sichtweite 10 km oder mehr
keine Wolken unter 1500 m und keine Kumulonimbus oder Gewitterwolken

METAR: ZUCK 271500Z 00000MPS CAVOK 24/19 Q1011 NOSIG

Zeit: 23:50 (15:50 UTC)

Prognose

Neuester Wetterbericht von vor 6 Stunden und 38 Minuten, um 09:12 UTC
Gültige Prognose vom 27 um 12 UTC bis 28 um 12 UTC
Wind 6 kt aus Ost/Nordost
Sichtweite: 5000 m
Aufgelockert bewölkt in der Höhe von 3000 ft
trockener Dunst

TAF: ZUCK 270912Z 2712/2812 07003MPS 5000 HZ SCT030 TX31/2807Z TN22/2722Z

Wetterbeobachtungen und Prognosen von mehr als 4000 Flughäfen (METAR und TAF Bericht).

Die verfügbaren Stationen werden durch gelbe und rote Markierungen auf der Karte dargestellt.

Führen Sie die Maus auf sie, um den Namen der Station zu sehen.

Darauf klicken, um die Beobachtung von Wetterbeobachtungen und Prognosen zu sehen.

Um die Karte zu ändern : klicken Sie auf den grünen Tasten mit einem schwarzen Kreuz Zum Vergrößern, auf den grünen Button mit einem Gedankenstrich zu verkleinern, oder auf die grünen Pfeile für benachbarte Karten.


METAR-TAF: